createdAt,value
2019-04-22T00:01:56.897Z,18.50
2019-04-22T00:04:36.553Z,18.97
2019-04-22T00:07:17.401Z,17.60
2019-04-22T00:09:51.745Z,18.67
2019-04-22T00:12:27.967Z,17.77
2019-04-22T00:14:52.511Z,17.30
2019-04-22T00:17:45.226Z,18.77
2019-04-22T00:20:04.978Z,17.20
2019-04-22T00:22:32.648Z,17.57
2019-04-22T00:25:08.037Z,17.83
2019-04-22T00:27:42.829Z,17.70
2019-04-22T00:30:13.247Z,17.57
2019-04-22T00:32:41.885Z,17.50
2019-04-22T00:35:18.228Z,18.13
2019-04-22T00:37:57.015Z,18.27
2019-04-22T00:40:30.978Z,17.93
2019-04-22T00:45:35.291Z,16.70
2019-04-22T00:48:05.274Z,17.33
2019-04-22T00:50:57.815Z,17.70
2019-04-22T00:53:09.290Z,18.33
2019-04-22T00:58:40.700Z,16.93
2019-04-22T01:01:17.481Z,17.17
2019-04-22T01:06:20.355Z,17.50
2019-04-22T01:08:57.802Z,18.60
2019-04-22T01:13:55.745Z,19.40
2019-04-22T01:16:32.438Z,18.23
2019-04-22T01:19:04.728Z,18.57
2019-04-22T01:21:39.173Z,18.27
2019-04-22T01:24:02.879Z,18.17
2019-04-22T01:26:36.246Z,19.30
2019-04-22T01:29:05.035Z,18.00
2019-04-22T01:31:30.493Z,18.10
2019-04-22T01:34:14.139Z,19.07
2019-04-22T01:36:55.535Z,17.90
2019-04-22T01:39:33.835Z,18.30
2019-04-22T01:47:13.462Z,17.97
2019-04-22T01:49:39.858Z,18.50
2019-04-22T01:52:12.748Z,19.47
2019-04-22T01:54:48.433Z,18.63
2019-04-22T01:57:17.189Z,18.83
2019-04-22T01:59:45.829Z,18.30
2019-04-22T02:02:30.546Z,18.13
2019-04-22T02:05:01.230Z,19.13
2019-04-22T02:07:29.512Z,19.10
2019-04-22T02:10:04.007Z,17.93
2019-04-22T02:12:39.831Z,19.57
2019-04-22T02:15:12.485Z,19.60
2019-04-22T02:20:10.651Z,20.17
2019-04-22T02:23:40.782Z,19.70
2019-04-22T02:25:57.988Z,19.40
2019-04-22T02:28:32.322Z,18.50
2019-04-22T02:31:20.628Z,19.73
2019-04-22T02:36:20.253Z,20.13
2019-04-22T02:38:57.376Z,19.27
2019-04-22T02:43:56.962Z,20.00
2019-04-22T02:46:39.746Z,19.90
2019-04-22T02:51:22.975Z,20.53
2019-04-22T02:59:08.459Z,19.90
2019-04-22T03:01:33.096Z,20.67
2019-04-22T03:04:06.632Z,21.03
2019-04-22T03:06:38.520Z,20.90
2019-04-22T03:11:52.544Z,22.57
2019-04-22T03:14:08.698Z,22.33
2019-04-22T03:16:43.200Z,20.77
2019-04-22T03:21:50.249Z,22.00
2019-04-22T03:26:52.353Z,22.27
2019-04-22T03:30:33.674Z,23.33
2019-04-22T03:37:49.112Z,22.60
2019-04-22T03:42:52.239Z,23.33
2019-04-22T04:00:42.912Z,25.13
2019-04-22T04:10:46.096Z,26.70
2019-04-22T04:15:38.416Z,26.60
2019-04-22T04:18:30.876Z,25.33
2019-04-22T04:21:00.606Z,27.37
2019-04-22T04:23:31.022Z,27.77
2019-04-22T04:25:52.686Z,28.47
2019-04-22T04:30:59.829Z,26.73
2019-04-22T04:33:38.876Z,27.70
2019-04-22T04:36:11.572Z,27.73
2019-04-22T04:41:21.620Z,29.10
2019-04-22T04:46:27.213Z,27.63
2019-04-22T04:49:00.071Z,28.53
2019-04-22T04:54:05.680Z,27.90
2019-04-22T04:59:16.911Z,28.00
2019-04-22T05:01:36.023Z,28.93
2019-04-22T05:11:51.971Z,27.77
2019-04-22T05:16:46.395Z,25.77
2019-04-22T05:19:23.942Z,28.50
2019-04-22T05:21:53.463Z,27.67
2019-04-22T05:24:26.242Z,28.60
2019-04-22T05:26:56.755Z,27.33
2019-04-22T05:29:34.661Z,28.70
2019-04-22T05:31:59.725Z,28.57
2019-04-22T05:34:28.757Z,27.90
2019-04-22T05:40:34.672Z,27.87
2019-04-22T05:43:22.714Z,27.57
2019-04-22T05:45:59.275Z,25.47
2019-04-22T05:49:14.543Z,28.83
2019-04-22T05:52:04.705Z,28.70
2019-04-22T05:54:30.396Z,27.67
2019-04-22T05:57:31.606Z,27.37
2019-04-22T06:04:24.521Z,29.97
2019-04-22T06:07:01.057Z,28.43
2019-04-22T06:09:55.375Z,28.37
2019-04-22T06:12:32.767Z,29.00
2019-04-22T06:15:12.794Z,29.63
2019-04-22T06:17:55.119Z,28.50
2019-04-22T06:20:50.136Z,29.30
2019-04-22T06:23:36.044Z,27.83
2019-04-22T06:30:07.712Z,29.27
2019-04-22T06:32:53.964Z,29.67
2019-04-22T06:38:30.205Z,31.10
2019-04-22T06:40:55.385Z,30.23
2019-04-22T06:44:05.004Z,30.30
2019-04-22T06:52:52.523Z,29.00
2019-04-22T06:56:42.709Z,27.97
2019-04-22T06:59:31.258Z,27.50
2019-04-22T07:02:16.575Z,27.63
2019-04-22T07:08:16.056Z,26.60
2019-04-22T07:10:51.876Z,27.97
2019-04-22T07:13:35.889Z,26.53
2019-04-22T07:16:13.217Z,27.53
2019-04-22T07:19:24.347Z,25.90
2019-04-22T07:21:41.575Z,26.63
2019-04-22T07:24:40.426Z,26.07
2019-04-22T07:26:58.586Z,26.00
2019-04-22T07:29:42.781Z,26.83
2019-04-22T07:36:17.559Z,24.93
2019-04-22T07:43:21.406Z,25.20
2019-04-22T07:45:48.949Z,22.60
2019-04-22T07:48:33.407Z,23.37
2019-04-22T07:51:11.665Z,22.93
2019-04-22T07:53:23.037Z,23.00
2019-04-22T07:56:03.586Z,22.30
2019-04-22T07:58:29.015Z,22.67
2019-04-22T08:01:09.061Z,23.03
2019-04-22T08:03:49.985Z,22.73
2019-04-22T08:06:12.345Z,22.57
2019-04-22T08:08:37.318Z,21.53
2019-04-22T08:11:30.135Z,22.93
2019-04-22T08:14:20.965Z,22.33
2019-04-22T08:17:05.851Z,22.90
2019-04-22T08:19:33.155Z,21.77
2019-04-22T08:22:01.199Z,23.03
2019-04-22T08:24:42.059Z,21.27
2019-04-22T08:27:10.340Z,21.70
2019-04-22T08:29:56.634Z,21.35
2019-04-22T08:32:14.241Z,21.33
2019-04-22T08:34:47.460Z,19.50
2019-04-22T08:40:03.544Z,18.77
2019-04-22T08:42:43.416Z,18.90
2019-04-22T08:50:12.060Z,19.73
2019-04-22T08:52:44.698Z,17.85
2019-04-22T08:58:03.672Z,21.50
2019-04-22T09:00:21.556Z,18.37
2019-04-22T09:03:00.622Z,17.35
2019-04-22T09:05:55.375Z,18.67
2019-04-22T09:08:14.261Z,16.57
2019-04-22T09:13:10.231Z,14.63
2019-04-22T09:15:53.157Z,14.60
2019-04-22T09:23:37.152Z,15.38
2019-04-22T09:26:27.088Z,15.55
2019-04-22T09:29:20.922Z,15.63
2019-04-22T09:32:45.521Z,15.17
2019-04-22T09:35:24.915Z,14.35
2019-04-22T09:41:06.485Z,15.70
2019-04-22T09:46:52.184Z,15.48
2019-04-22T09:49:26.758Z,14.93
2019-04-22T09:52:54.923Z,15.72
2019-04-22T09:55:53.191Z,15.98
2019-04-22T09:58:38.550Z,16.55
2019-04-22T10:01:30.754Z,17.50
2019-04-22T10:03:56.746Z,16.80
2019-04-22T10:06:36.720Z,16.70
2019-04-22T10:15:33.761Z,17.30
2019-04-22T10:18:16.297Z,17.17
2019-04-22T10:21:27.311Z,17.60
2019-04-22T10:30:48.416Z,16.80
2019-04-22T10:35:55.324Z,16.55
2019-04-22T10:38:40.028Z,16.77
2019-04-22T10:41:26.406Z,16.85
2019-04-22T10:44:01.226Z,15.93
2019-04-22T10:46:56.071Z,16.57
2019-04-22T10:50:20.608Z,16.25
2019-04-22T10:55:21.600Z,14.90
2019-04-22T10:56:36.953Z,15.05
2019-04-22T10:59:10.949Z,15.35
2019-04-22T11:01:48.763Z,15.20
2019-04-22T11:04:32.497Z,16.20
2019-04-22T11:11:26.310Z,15.00
2019-04-22T11:14:12.683Z,14.15
2019-04-22T11:28:23.531Z,12.93
2019-04-22T11:31:10.425Z,12.80
2019-04-22T11:38:22.690Z,12.03
2019-04-22T11:45:39.527Z,11.80
2019-04-22T11:48:42.385Z,11.38
2019-04-22T11:51:24.154Z,11.00
2019-04-22T11:54:12.543Z,10.58
2019-04-22T12:01:39.011Z,9.63
2019-04-22T12:05:03.854Z,9.73
2019-04-22T12:07:57.331Z,9.20
2019-04-22T12:10:47.142Z,8.55
2019-04-22T12:13:49.828Z,8.58
2019-04-22T12:17:22.419Z,8.70
2019-04-22T12:20:27.546Z,8.23
2019-04-22T12:23:16.914Z,7.87
2019-04-22T12:25:54.261Z,7.65
2019-04-22T12:28:21.254Z,7.70
2019-04-22T12:31:01.611Z,7.53
2019-04-22T12:33:47.467Z,7.22
2019-04-22T12:36:26.482Z,7.42
2019-04-22T12:39:03.285Z,6.85
2019-04-22T12:41:42.388Z,6.33
2019-04-22T12:44:41.789Z,6.65
2019-04-22T12:48:08.477Z,6.45
2019-04-22T12:50:58.991Z,6.65
2019-04-22T12:58:11.906Z,6.58
2019-04-22T13:05:20.122Z,6.10
2019-04-22T13:07:59.884Z,5.62
2019-04-22T13:10:50.479Z,6.25
2019-04-22T13:13:13.121Z,5.70
2019-04-22T13:15:49.031Z,5.53
2019-04-22T13:18:29.353Z,5.55
2019-04-22T13:20:56.935Z,6.00
2019-04-22T13:23:39.136Z,5.40
2019-04-22T13:26:16.955Z,5.50
2019-04-22T13:29:15.054Z,4.67
2019-04-22T13:32:11.369Z,5.58
2019-04-22T13:34:46.651Z,5.37
2019-04-22T13:37:36.922Z,5.65
2019-04-22T13:41:26.732Z,5.53
2019-04-22T13:43:53.846Z,5.22
2019-04-22T13:46:32.138Z,5.25
2019-04-22T13:53:28.956Z,5.42
2019-04-22T13:55:59.248Z,5.28
2019-04-22T13:58:58.496Z,5.22
2019-04-22T14:01:54.647Z,5.10
2019-04-22T14:05:24.577Z,5.08
2019-04-22T14:08:37.564Z,4.92
2019-04-22T14:11:31.320Z,5.72
2019-04-22T14:13:54.634Z,5.80
2019-04-22T14:17:04.953Z,5.25
2019-04-22T14:23:35.667Z,4.85
2019-04-22T14:26:17.706Z,4.22
2019-04-22T14:29:06.106Z,4.92
2019-04-22T14:31:42.377Z,5.00
2019-04-22T14:34:46.933Z,4.67
2019-04-22T14:37:24.346Z,3.83
2019-04-22T14:40:09.279Z,4.37
2019-04-22T14:43:57.836Z,3.80
2019-04-22T14:46:32.037Z,3.77
2019-04-22T14:49:00.880Z,3.92
2019-04-22T14:51:41.827Z,4.15
2019-04-22T14:54:13.749Z,4.12
2019-04-22T14:56:34.270Z,3.83
2019-04-22T14:59:19.134Z,4.08
2019-04-22T15:02:03.529Z,3.83
2019-04-22T15:05:16.363Z,4.25
2019-04-22T15:07:57.059Z,4.12
2019-04-22T15:10:36.062Z,3.65
2019-04-22T15:13:51.629Z,3.87
2019-04-22T15:17:00.802Z,4.45
2019-04-22T15:21:04.878Z,3.92
2019-04-22T15:23:38.507Z,4.12
2019-04-22T15:26:42.528Z,4.62
2019-04-22T15:30:55.575Z,4.25
2019-04-22T15:33:48.035Z,6.03
2019-04-22T15:36:19.986Z,5.30
2019-04-22T15:39:05.128Z,5.25
2019-04-22T15:41:55.546Z,4.87
2019-04-22T15:44:37.654Z,4.78
2019-04-22T15:51:24.640Z,4.03
2019-04-22T15:54:39.447Z,4.47
2019-04-22T15:58:01.613Z,4.45
2019-04-22T16:00:45.939Z,4.33
2019-04-22T16:03:10.070Z,4.53
2019-04-22T16:05:43.918Z,4.30
2019-04-22T16:08:16.997Z,4.15
2019-04-22T16:10:48.155Z,4.67
2019-04-22T16:13:23.240Z,4.58
2019-04-22T16:15:52.190Z,5.17
2019-04-22T16:18:24.199Z,5.30
2019-04-22T16:20:56.390Z,4.20
2019-04-22T16:23:51.993Z,4.50
2019-04-22T16:26:33.483Z,5.05
2019-04-22T16:29:05.302Z,4.50
2019-04-22T16:31:37.644Z,4.37
2019-04-22T16:34:11.339Z,3.70
2019-04-22T16:36:42.851Z,4.25
2019-04-22T16:39:15.117Z,3.92
2019-04-22T16:41:46.665Z,3.98
2019-04-22T16:44:18.625Z,3.92
2019-04-22T16:46:49.990Z,4.53
2019-04-22T16:49:21.495Z,3.85
2019-04-22T16:51:52.157Z,3.83
2019-04-22T16:54:24.233Z,3.67
2019-04-22T16:56:57.556Z,4.10
2019-04-22T16:59:36.947Z,4.00
2019-04-22T17:02:41.731Z,4.03
2019-04-22T17:05:41.398Z,3.77
2019-04-22T17:08:12.329Z,3.50
2019-04-22T17:10:43.904Z,3.75
2019-04-22T17:13:19.686Z,3.30
2019-04-22T17:15:47.268Z,3.72
2019-04-22T17:18:25.448Z,3.20
2019-04-22T17:20:58.464Z,3.27
2019-04-22T17:23:29.680Z,3.50
2019-04-22T17:26:12.577Z,2.98
2019-04-22T17:28:51.213Z,3.55
2019-04-22T17:31:50.221Z,2.98
2019-04-22T17:34:15.790Z,3.02
2019-04-22T17:36:46.676Z,3.40
2019-04-22T17:39:31.562Z,3.62
2019-04-22T17:42:09.663Z,3.02
2019-04-22T17:44:54.248Z,3.20
2019-04-22T17:47:41.401Z,3.08
2019-04-22T17:50:21.501Z,2.45
2019-04-22T17:53:03.173Z,3.10
2019-04-22T17:55:24.254Z,2.95
2019-04-22T17:57:53.675Z,2.98
2019-04-22T18:00:34.764Z,3.27
2019-04-22T18:05:57.413Z,3.10
2019-04-22T18:08:45.422Z,3.08
2019-04-22T18:11:27.239Z,3.02
2019-04-22T18:13:58.848Z,3.40
2019-04-22T18:16:26.170Z,3.30
2019-04-22T18:18:59.929Z,3.52
2019-04-22T18:21:29.191Z,4.35
2019-04-22T18:23:54.009Z,3.85
2019-04-22T18:26:32.292Z,3.47
2019-04-22T18:29:07.165Z,3.73
2019-04-22T18:31:31.706Z,3.55
2019-04-22T18:34:06.952Z,3.47
2019-04-22T18:36:41.659Z,3.60
2019-04-22T18:39:33.422Z,3.55
2019-04-22T18:41:52.058Z,3.27
2019-04-22T18:44:35.105Z,3.62
2019-04-22T18:47:05.485Z,3.27
2019-04-22T18:49:42.813Z,3.65
2019-04-22T18:52:39.481Z,3.45
2019-04-22T18:55:26.762Z,3.22
2019-04-22T18:58:55.849Z,3.63
2019-04-22T19:02:27.185Z,3.40
2019-04-22T19:08:36.658Z,3.63
2019-04-22T19:11:16.711Z,4.10
2019-04-22T19:19:43.728Z,3.63
2019-04-22T19:22:25.233Z,3.65
2019-04-22T19:25:21.296Z,3.90
2019-04-22T19:28:19.198Z,3.62
2019-04-22T19:31:23.087Z,3.60
2019-04-22T19:34:00.750Z,3.77
2019-04-22T19:36:51.895Z,3.62
2019-04-22T19:39:31.014Z,3.87
2019-04-22T19:42:40.826Z,3.17
2019-04-22T19:45:05.840Z,3.90
2019-04-22T19:47:58.205Z,3.50
2019-04-22T19:50:21.340Z,4.47
2019-04-22T19:52:59.458Z,3.97
2019-04-22T19:55:35.938Z,3.97
2019-04-22T19:58:20.066Z,3.90
2019-04-22T20:01:41.729Z,3.80
2019-04-22T20:05:05.921Z,3.93
2019-04-22T20:10:30.026Z,4.20
2019-04-22T20:13:04.335Z,3.67
2019-04-22T20:15:33.437Z,3.70
2019-04-22T20:20:46.554Z,4.67
2019-04-22T20:23:14.496Z,4.70
2019-04-22T20:25:46.380Z,3.92
2019-04-22T20:28:24.181Z,3.75
2019-04-22T20:30:55.726Z,3.65
2019-04-22T20:33:29.273Z,3.95
2019-04-22T20:36:03.548Z,4.40
2019-04-22T20:38:29.673Z,3.87
2019-04-22T20:41:05.753Z,3.67
2019-04-22T20:43:40.347Z,3.50
2019-04-22T20:46:11.514Z,3.60
2019-04-22T20:48:48.356Z,3.60
2019-04-22T20:51:29.716Z,3.77
2019-04-22T20:53:57.778Z,4.13
2019-04-22T20:56:26.811Z,3.22
2019-04-22T20:58:57.184Z,3.00
2019-04-22T21:01:28.310Z,3.43
2019-04-22T21:03:50.914Z,3.95
2019-04-22T21:06:33.518Z,3.60
2019-04-22T21:09:12.105Z,3.00
2019-04-22T21:11:38.448Z,2.85
2019-04-22T21:14:12.020Z,2.53
2019-04-22T21:16:47.825Z,2.70
2019-04-22T21:19:25.975Z,2.33
2019-04-22T21:21:54.697Z,3.07
2019-04-22T21:24:21.834Z,2.58
2019-04-22T21:26:58.363Z,2.63
2019-04-22T21:29:20.769Z,2.95
2019-04-22T21:32:01.467Z,2.62
2019-04-22T21:34:35.326Z,2.42
2019-04-22T21:37:07.575Z,2.00
2019-04-22T21:39:30.830Z,2.30
2019-04-22T21:42:11.852Z,2.23
2019-04-22T21:44:42.665Z,2.40
2019-04-22T21:47:26.540Z,2.50
2019-04-22T21:49:55.070Z,2.63
2019-04-22T21:52:26.022Z,2.27
2019-04-22T21:55:03.865Z,2.10
2019-04-22T21:58:05.173Z,2.10
2019-04-22T22:03:15.929Z,2.33
2019-04-22T22:05:38.468Z,2.35
2019-04-22T22:08:20.340Z,2.30
2019-04-22T22:10:45.294Z,2.13
2019-04-22T22:13:17.058Z,2.10
2019-04-22T22:15:53.692Z,2.13
2019-04-22T22:18:19.036Z,1.90
2019-04-22T22:21:19.616Z,1.60
2019-04-22T22:23:38.796Z,2.20
2019-04-22T22:25:58.309Z,2.20
2019-04-22T22:31:15.503Z,2.22
2019-04-22T22:33:45.143Z,2.17
2019-04-22T22:36:15.264Z,1.90
2019-04-22T22:38:42.601Z,2.50
2019-04-22T22:40:58.171Z,2.00
2019-04-22T22:43:34.944Z,1.93
2019-04-22T22:46:13.438Z,2.20
2019-04-22T22:49:00.282Z,2.00
2019-04-22T22:51:33.995Z,2.23
2019-04-22T22:53:58.143Z,2.10
2019-04-22T22:56:39.276Z,2.47
2019-04-22T22:59:03.093Z,2.47
2019-04-22T23:01:39.531Z,2.03
2019-04-22T23:04:08.883Z,1.97
2019-04-22T23:06:48.231Z,2.17
2019-04-22T23:09:17.369Z,1.70
2019-04-22T23:14:21.950Z,2.03
2019-04-22T23:16:39.419Z,2.20
2019-04-22T23:19:06.397Z,2.53
2019-04-22T23:21:41.962Z,2.07
2019-04-22T23:24:26.476Z,2.35
2019-04-22T23:27:11.433Z,2.00
2019-04-22T23:32:31.976Z,2.07
2019-04-22T23:35:15.330Z,2.10
2019-04-22T23:37:47.744Z,1.90
2019-04-22T23:43:00.195Z,2.60
2019-04-22T23:45:30.527Z,2.17
2019-04-22T23:47:47.440Z,2.63
2019-04-22T23:50:31.405Z,2.00
2019-04-22T23:53:04.849Z,2.40
2019-04-22T23:55:37.022Z,2.13
2019-04-22T23:58:11.123Z,2.00
